TimeCDT,TemperatureF,Dew PointF,Humidity,Sea Level PressureIn,VisibilityMPH,Wind Direction,Wind SpeedMPH,Gust SpeedMPH,PrecipitationIn,Events,Conditions,WindDirDegrees,DateUTC
12:53 AM,75.9,64.0,67,30.04,10.0,SW,15.0,20.7,N/A,,Clear,220,2013-08-26 05:53:00
1:53 AM,73.9,64.0,71,30.05,10.0,SW,12.7,20.7,N/A,,Clear,220,2013-08-26 06:53:00
2:53 AM,73.9,64.0,71,30.03,10.0,SSW,12.7,20.7,N/A,,Clear,210,2013-08-26 07:53:00
3:53 AM,73.0,64.0,73,30.04,10.0,SSW,10.4,-,N/A,,Clear,210,2013-08-26 08:53:00
4:53 AM,73.0,64.0,73,30.05,10.0,SSW,6.9,-,N/A,,Partly Cloudy,210,2013-08-26 09:53:00
5:53 AM,72.0,64.0,76,30.06,10.0,SSW,6.9,-,N/A,,Overcast,210,2013-08-26 10:53:00
6:53 AM,72.0,64.0,76,30.07,10.0,SSW,9.2,-,N/A,,Mostly Cloudy,200,2013-08-26 11:53:00
7:53 AM,73.0,64.0,73,30.10,10.0,Variable,4.6,-,N/A,,Mostly Cloudy,0,2013-08-26 12:53:00
8:53 AM,73.0,66.9,81,30.12,7.0,SW,3.5,-,0.02,Rain-Thunderstorm,Light Rain,230,2013-08-26 13:53:00
9:07 AM,73.4,66.2,78,30.12,10.0,SW,4.6,-,0.00,,Overcast,230,2013-08-26 14:07:00
9:53 AM,75.9,66.9,74,30.11,10.0,SSW,3.5,-,0.00,,Partly Cloudy,210,2013-08-26 14:53:00
10:53 AM,75.9,68.0,76,30.14,10.0,NW,10.4,-,N/A,Thunderstorm,Mostly Cloudy,320,2013-08-26 15:53:00
11:12 AM,77.0,66.2,69,30.09,10.0,Calm,Calm,-,N/A,,Scattered Clouds,0,2013-08-26 16:12:00
11:53 AM,82.0,66.9,60,30.03,10.0,SSW,11.5,-,N/A,,Clear,200,2013-08-26 16:53:00
12:53 PM,86.0,66.0,51,30.00,10.0,SW,17.3,24.2,N/A,,Clear,220,2013-08-26 17:53:00
1:53 PM,87.1,66.0,49,29.98,10.0,SW,18.4,25.3,N/A,,Clear,220,2013-08-26 18:53:00
2:53 PM,89.1,66.0,46,29.96,10.0,SW,17.3,26.5,N/A,,Clear,220,2013-08-26 19:53:00
3:53 PM,89.1,68.0,50,29.96,10.0,SW,12.7,20.7,N/A,,Clear,220,2013-08-26 20:53:00
4:53 PM,89.1,70.0,53,29.95,10.0,SW,12.7,-,N/A,,Clear,220,2013-08-26 21:53:00
5:53 PM,88.0,71.1,57,29.94,10.0,SW,12.7,-,N/A,,Clear,220,2013-08-26 22:53:00
6:53 PM,86.0,72.0,63,29.93,10.0,SSW,12.7,-,N/A,,Clear,210,2013-08-26 23:53:00
7:53 PM,84.9,72.0,65,29.93,10.0,SW,8.1,-,N/A,,Clear,220,2013-08-27 00:53:00
8:53 PM,82.9,72.0,69,29.94,10.0,SSW,5.8,-,N/A,,Clear,210,2013-08-27 01:53:00
9:53 PM,81.0,72.0,74,29.94,10.0,SW,6.9,-,N/A,,Clear,220,2013-08-27 02:53:00
10:53 PM,80.1,72.0,76,29.94,10.0,SSW,9.2,-,N/A,,Clear,210,2013-08-27 03:53:00
11:53 PM,80.1,71.1,74,29.93,10.0,SSW,11.5,-,N/A,,Clear,210,2013-08-27 04:53:00